Time;durP1;ratioP1;P1;durP2;ratioP2;P2;SDS_P1;SDS_P2;PMS_P1;PMS_P2;Temp;Humidity;BMP_temperature;BMP_pressure;BME280_temperature;BME280_humidity;BME280_pressure;Samples;Min_cycle;Max_cycle;Signal;HPM_P1;HPM_P2
2023/10/14 00:01:31;;;;;;;;;;;20.10;99.90;;;19.49;100.00;96763.66;5045479;28;1977;-71
2023/10/14 00:03:59;;;;;;;;;;;20.10;99.90;;;19.59;100.00;96782.88;5030588;28;1965;-71
2023/10/14 00:06:27;;;;;;;;;;;20.10;99.90;;;19.41;100.00;96767.00;5026374;28;1707;-72
2023/10/14 00:09:11;;;;;;;;;;;20.00;99.90;;;19.45;100.00;96765.72;5037984;28;1353;-72
2023/10/14 00:11:46;;;;;;;;;;;20.00;99.90;;;19.49;100.00;96784.72;5038380;28;1708;-72
2023/10/14 00:14:17;;;;;;;;;;;20.00;99.90;;;19.36;100.00;96777.94;5036748;28;1939;-71
2023/10/14 00:16:51;;;;;;;;;;;20.00;99.90;;;19.50;100.00;96784.56;5040071;28;1773;-72
2023/10/14 00:19:20;;;;;;;;;;;20.00;99.90;;;19.39;100.00;96761.03;5042453;28;1518;-72
2023/10/14 00:21:49;;;;;;;;;;;19.90;99.90;;;19.36;100.00;96775.31;5037982;28;1993;-72
2023/10/14 00:24:28;;;;;;;;;;;19.90;99.90;;;19.38;100.00;96754.91;5037021;28;1462;-72
2023/10/14 00:26:57;;;;;;;;;;;19.90;99.90;;;19.36;100.00;96753.41;5039362;28;1612;-72
2023/10/14 00:29:25;;;;;;;;;;;19.90;99.90;;;19.41;100.00;96775.72;5039194;28;1608;-72
2023/10/14 00:31:52;;;;;;;;;;;19.90;99.90;;;19.27;100.00;96756.88;5041839;28;1479;-72
2023/10/14 00:34:25;;;;;;;;;;;20.00;99.90;;;19.40;100.00;96749.53;5042984;28;1688;-72
2023/10/14 00:36:53;;;;;;;;;;;19.90;99.90;;;19.55;100.00;96757.84;5026654;28;1455;-72
2023/10/14 00:39:25;;;;;;;;;;;20.00;99.90;;;19.48;100.00;96756.72;5040046;28;1419;-72
2023/10/14 00:41:53;;;;;;;;;;;20.00;99.90;;;19.55;100.00;96727.06;5034651;28;1985;-72
2023/10/14 00:44:24;;;;;;;;;;;20.10;99.90;;;19.68;100.00;96766.22;5023313;28;1976;-71
2023/10/14 00:46:52;;;;;;;;;;;20.10;99.90;;;19.69;100.00;96746.06;5028157;28;1349;-72
2023/10/14 00:49:22;;;;;;;;;;;20.20;99.90;;;19.65;100.00;96787.59;5024564;28;1665;-72
2023/10/14 00:51:55;;;;;;;;;;;20.20;99.90;;;19.53;100.00;96751.88;5022622;28;1605;-72
2023/10/14 00:57:19;;;;;;;;;;;20.10;99.90;;;19.52;100.00;96774.72;5041342;28;1582;-72
2023/10/14 00:59:42;;;;;;;;;;;20.10;99.90;;;19.59;100.00;96752.16;5039866;28;1487;-72
2023/10/14 01:02:09;;;;;;;;;;;20.00;99.90;;;19.56;100.00;96783.16;5038395;28;2012;-72
2023/10/14 01:04:38;;;;;;;;;;;20.10;99.90;;;19.63;100.00;96773.72;5026653;28;1722;-72
2023/10/14 01:07:12;;;;;;;;;;;20.00;99.90;;;19.56;100.00;96772.63;5041395;28;1498;-72
2023/10/14 01:14:45;;;;;;;;;;;20.00;99.90;;;19.49;100.00;96774.19;5039698;28;1149;-72
2023/10/14 01:17:25;;;;;;;;;;;20.00;99.90;;;19.36;100.00;96734.97;5039646;28;1483;-72
2023/10/14 01:19:53;;;;;;;;;;;20.00;99.90;;;19.39;100.00;96746.06;5026873;28;1396;-72
2023/10/14 01:22:20;;;;;;;;;;;19.90;99.90;;;19.38;100.00;96751.47;5019640;28;1989;-72
2023/10/14 01:24:48;;;;;;;;;;;19.90;99.90;;;19.32;100.00;96726.56;5037577;28;1570;-71
2023/10/14 01:27:17;;;;;;;;;;;19.80;99.90;;;19.40;100.00;96747.72;5040338;28;1658;-72
2023/10/14 01:29:44;;;;;;;;;;;19.80;99.90;;;19.28;100.00;96754.13;5025372;28;1529;-72
2023/10/14 01:35:13;;;;;;;;;;;19.90;99.90;;;19.28;100.00;96730.44;5021311;28;1550;-72
2023/10/14 01:37:40;;;;;;;;;;;19.80;99.90;;;19.30;100.00;96791.66;5024203;28;1609;-72
2023/10/14 01:40:24;;;;;;;;;;;19.80;99.90;;;19.31;100.00;96742.47;5037974;28;1546;-72
2023/10/14 01:43:05;;;;;;;;;;;19.80;99.90;;;19.32;100.00;96739.72;5036667;28;1934;-72
2023/10/14 01:45:39;;;;;;;;;;;19.80;99.90;;;19.28;100.00;96734.88;5039591;28;1645;-72
2023/10/14 01:50:57;;;;;;;;;;;19.80;99.90;;;19.31;100.00;96755.63;5041479;28;1543;-71
2023/10/14 01:53:32;;;;;;;;;;;19.80;99.90;;;19.40;100.00;96737.19;5035102;28;1509;-71
2023/10/14 01:56:01;;;;;;;;;;;19.80;99.90;;;19.33;100.00;96728.22;5040033;28;1310;-71
2023/10/14 01:58:32;;;;;;;;;;;19.90;99.90;;;19.50;100.00;96768.78;5035276;28;1397;-71
2023/10/14 02:01:07;;;;;;;;;;;19.90;99.90;;;19.49;100.00;96750.50;5039365;28;1562;-71
2023/10/14 02:03:41;;;;;;;;;;;20.00;99.90;;;19.30;100.00;96738.19;5042986;28;1922;-71
2023/10/14 02:06:16;;;;;;;;;;;19.90;99.90;;;19.43;100.00;96742.19;5029946;28;1629;-71
2023/10/14 02:08:47;;;;;;;;;;;19.90;99.90;;;19.49;100.00;96742.59;5026553;28;1605;-71
2023/10/14 02:11:20;;;;;;;;;;;19.90;99.90;;;19.40;100.00;96720.59;5025948;28;1603;-71
2023/10/14 02:13:50;;;;;;;;;;;19.90;99.90;;;19.29;100.00;96705.78;5025573;28;1479;-71
2023/10/14 02:16:24;;;;;;;;;;;19.80;99.90;;;19.36;100.00;96709.53;5043908;28;1463;-71
2023/10/14 02:19:02;;;;;;;;;;;19.80;99.90;;;19.24;100.00;96718.53;5045694;28;1612;-71
2023/10/14 02:21:33;;;;;;;;;;;19.80;99.90;;;19.15;100.00;96727.25;5029435;28;1363;-71
2023/10/14 02:24:00;;;;;;;;;;;19.60;99.90;;;19.14;100.00;96708.03;5042667;28;1605;-71
2023/10/14 02:28:57;;;;;;;;;;;19.70;99.90;;;19.08;100.00;96726.16;5031172;28;1577;-71
2023/10/14 02:33:56;;;;;;;;;;;19.60;99.90;;;19.00;100.00;96729.50;5040282;28;1632;-71
2023/10/14 02:36:29;;;;;;;;;;;19.50;99.90;;;18.95;100.00;96722.03;5043982;28;1567;-72
2023/10/14 02:38:57;;;;;;;;;;;19.50;99.90;;;18.92;100.00;96726.72;5043522;28;1550;-71
2023/10/14 02:41:31;;;;;;;;;;;19.50;99.90;;;18.94;100.00;96695.84;5043542;28;1561;-71
2023/10/14 02:46:46;;;;;;;;;;;19.50;99.90;;;18.96;100.00;96744.69;5027595;28;1558;-71
2023/10/14 02:49:14;;;;;;;;;;;19.50;99.90;;;19.09;100.00;96712.88;5043740;28;1964;-71
2023/10/14 02:51:43;;;;;;;;;;;19.50;99.90;;;18.93;100.00;96716.06;5031951;28;1503;-71
2023/10/14 02:54:26;;;;;;;;;;;19.50;99.90;;;18.91;100.00;96770.59;5028524;28;1465;-71
2023/10/14 02:59:35;;;;;;;;;;;19.30;99.90;;;18.41;100.00;96762.72;5022937;28;1454;-71
2023/10/14 03:02:14;;;;;;;;;;;19.20;99.90;;;18.37;100.00;96766.56;5042676;28;2403;-71
2023/10/14 03:10:34;;;;;;;;;;;19.20;99.90;;;18.72;100.00;96787.13;5027364;28;1990;-71
2023/10/14 03:13:01;;;;;;;;;;;19.20;99.90;;;18.66;100.00;96752.69;5025831;28;1490;-71
2023/10/14 03:15:31;;;;;;;;;;;19.20;99.90;;;18.52;100.00;96782.78;5026254;28;1558;-71
2023/10/14 03:17:58;;;;;;;;;;;19.10;99.90;;;18.57;100.00;96770.09;5043315;28;1601;-71
2023/10/14 03:22:55;;;;;;;;;;;19.10;99.90;;;18.60;100.00;96796.91;5018373;28;1906;-71
2023/10/14 03:25:23;;;;;;;;;;;19.10;99.90;;;18.51;100.00;96797.72;5042489;28;1660;-71
2023/10/14 03:27:58;;;;;;;;;;;19.10;99.90;;;18.62;100.00;96804.69;5038395;28;1668;-71
2023/10/14 03:30:26;;;;;;;;;;;19.10;99.90;;;18.22;100.00;96812.53;5028079;28;1582;-71
2023/10/14 03:32:54;;;;;;;;;;;19.00;99.90;;;17.59;100.00;96818.66;5007444;28;1547;-71
2023/10/14 03:35:24;;;;;;;;;;;18.60;99.90;;;17.56;100.00;96806.63;5037888;28;1344;-71
2023/10/14 03:37:58;;;;;;;;;;;18.40;99.90;;;17.51;100.00;96810.59;5040245;28;1684;-71
2023/10/14 03:43:08;;;;;;;;;;;;;;;17.30;100.00;96815.81;5028578;28;2005;-71
2023/10/14 03:45:48;;;;;;;;;;;18.30;99.90;;;17.36;100.00;96867.78;5046034;28;1484;-71
2023/10/14 03:48:16;;;;;;;;;;;18.10;99.90;;;17.16;100.00;96829.22;5041950;28;1570;-71
2023/10/14 03:50:44;;;;;;;;;;;18.00;99.90;;;17.17;100.00;96821.22;5043776;28;1471;-71
2023/10/14 03:53:12;;;;;;;;;;;18.00;99.90;;;17.40;100.00;96832.44;5040384;28;1483;-71
2023/10/14 03:55:39;;;;;;;;;;;18.00;99.90;;;17.33;100.00;96819.03;5026724;28;1559;-71
2023/10/14 03:58:06;;;;;;;;;;;18.00;99.90;;;17.41;100.00;96804.44;5041865;28;1471;-71
2023/10/14 04:00:38;;;;;;;;;;;18.00;99.90;;;17.59;100.00;96837.03;5039356;28;1796;-71
2023/10/14 04:03:14;;;;;;;;;;;18.10;99.90;;;17.60;100.00;96825.56;5040849;28;1902;-71
2023/10/14 04:05:46;;;;;;;;;;;18.10;99.90;;;17.63;100.00;96825.31;5041758;28;1555;-71
2023/10/14 04:08:14;;;;;;;;;;;18.10;99.90;;;17.66;100.00;96827.69;5028319;28;1616;-71
2023/10/14 04:10:46;;;;;;;;;;;18.10;99.90;;;17.65;100.00;96831.28;5024400;28;1572;-71
2023/10/14 04:13:14;;;;;;;;;;;18.10;99.90;;;17.80;100.00;96839.66;5028928;28;1803;-72
2023/10/14 04:15:52;;;;;;;;;;;18.20;99.90;;;17.78;100.00;96842.41;5039978;28;1519;-71
2023/10/14 04:18:24;;;;;;;;;;;18.20;99.90;;;17.60;100.00;96822.13;5014192;28;1586;-71
2023/10/14 04:21:35;;;;;;;;;;;18.20;99.90;;;17.66;100.00;96832.94;5035522;28;1304;-71
2023/10/14 04:26:34;;;;;;;;;;;18.10;99.90;;;17.52;100.00;96847.19;5021920;28;1535;-71
2023/10/14 04:29:03;;;;;;;;;;;18.10;99.90;;;17.39;100.00;96846.53;5039720;28;1558;-71
2023/10/14 04:31:40;;;;;;;;;;;18.00;99.90;;;17.47;100.00;96873.00;5040468;28;1593;-71
2023/10/14 04:34:08;;;;;;;;;;;17.90;99.90;;;17.46;100.00;96863.44;5037929;28;1542;-71
2023/10/14 04:36:36;;;;;;;;;;;17.90;99.90;;;17.32;100.00;96842.75;5024099;28;1537;-71
2023/10/14 04:39:14;;;;;;;;;;;17.80;99.90;;;17.29;100.00;96856.97;5027931;28;1677;-71
2023/10/14 04:44:37;;;;;;;;;;;17.70;99.90;;;17.21;100.00;96854.09;5029228;28;1906;-71
2023/10/14 04:47:04;;;;;;;;;;;17.70;99.90;;;17.22;100.00;96861.03;5028036;28;1380;-71
2023/10/14 04:49:38;;;;;;;;;;;17.70;99.90;;;17.17;100.00;96854.47;5024422;28;1602;-71
2023/10/14 04:52:06;;;;;;;;;;;17.70;99.90;;;17.20;100.00;96864.75;5037245;28;1484;-71
2023/10/14 04:54:54;;;;;;;;;;;17.70;99.90;;;17.11;100.00;96882.03;5025450;28;1558;-71
2023/10/14 04:57:24;;;;;;;;;;;17.60;99.90;;;17.09;100.00;96879.53;5026526;28;1558;-71
2023/10/14 04:59:55;;;;;;;;;;;17.60;99.90;;;17.08;100.00;96877.88;5039323;28;1636;-71
2023/10/14 05:02:22;;;;;;;;;;;17.50;99.90;;;16.99;100.00;96870.75;5042162;28;1925;-71
2023/10/14 05:04:51;;;;;;;;;;;17.50;99.90;;;16.98;100.00;96878.72;5023022;28;1847;-71
2023/10/14 05:07:19;;;;;;;;;;;17.50;99.90;;;17.00;100.00;96877.66;5022008;28;1648;-72
2023/10/14 05:10:06;;;;;;;;;;;17.40;99.90;;;17.01;100.00;96904.69;5026796;28;1625;-71
2023/10/14 05:12:40;;;;;;;;;;;17.40;99.90;;;16.84;100.00;96911.28;5026011;28;1530;-71
2023/10/14 05:15:21;;;;;;;;;;;17.40;99.90;;;16.80;100.00;96909.84;5037939;28;1613;-71
2023/10/14 05:17:53;;;;;;;;;;;17.30;99.90;;;16.70;100.00;96920.19;5024701;28;1539;-72
2023/10/14 05:20:47;;;;;;;;;;;17.20;99.90;;;16.68;100.00;96920.31;5030438;28;1605;-72
2023/10/14 05:23:06;;;;;;;;;;;17.20;99.90;;;16.56;100.00;96926.50;5036131;28;1927;-71
2023/10/14 05:25:39;;;;;;;;;;;17.20;99.90;;;16.53;100.00;96939.81;5041270;28;1519;-71
2023/10/14 05:28:07;;;;;;;;;;;17.10;99.90;;;16.24;100.00;96968.25;5038719;28;2048;-71
2023/10/14 05:30:35;;;;;;;;;;;16.90;99.90;;;15.77;100.00;96996.97;5040906;28;1621;-71
2023/10/14 05:33:13;;;;;;;;;;;16.70;99.90;;;15.39;100.00;97002.31;5041532;28;1558;-71
2023/10/14 05:35:41;;;;;;;;;;;16.40;99.90;;;15.11;100.00;97040.88;5008241;28;1578;-71
2023/10/14 05:38:11;;;;;;;;;;;16.00;99.90;;;14.96;100.00;97050.63;5035255;28;1570;-70
2023/10/14 05:40:41;;;;;;;;;;;15.70;99.90;;;14.87;100.00;97053.88;5022667;28;1482;-71
2023/10/14 05:43:08;;;;;;;;;;;15.60;99.90;;;14.85;100.00;97053.13;5026443;28;1898;-70
2023/10/14 05:45:36;;;;;;;;;;;15.50;99.90;;;14.79;100.00;97071.81;5042190;28;1660;-70
2023/10/14 05:48:04;;;;;;;;;;;15.30;99.90;;;14.72;100.00;97037.44;5041482;28;1218;-71
2023/10/14 05:50:33;;;;;;;;;;;15.30;99.90;;;14.59;100.00;97060.94;5023584;28;1835;-71
2023/10/14 05:53:00;;;;;;;;;;;15.20;99.90;;;14.46;100.00;97065.28;5031051;28;1518;-70
2023/10/14 05:55:31;;;;;;;;;;;15.10;99.90;;;14.50;100.00;97064.13;5044428;28;1506;-71
2023/10/14 05:58:00;;;;;;;;;;;15.10;99.90;;;14.50;100.00;97081.56;5044916;28;1642;-71
2023/10/14 06:00:28;;;;;;;;;;;15.00;99.90;;;14.48;100.00;97105.16;5043653;28;1741;-71
2023/10/14 06:02:56;;;;;;;;;;;15.00;99.90;;;14.40;100.00;97087.41;5043886;28;1919;-70
2023/10/14 06:05:32;;;;;;;;;;;15.00;99.90;;;14.44;100.00;97103.72;5028156;28;1550;-71
2023/10/14 06:08:05;;;;;;;;;;;15.00;99.90;;;14.47;100.00;97102.69;5042021;28;1585;-71
2023/10/14 06:10:41;;;;;;;;;;;15.00;99.90;;;14.44;100.00;97122.84;5042172;28;1514;-71
2023/10/14 06:13:09;;;;;;;;;;;15.00;99.90;;;14.44;100.00;97109.78;5025330;28;1601;-71
2023/10/14 06:15:38;;;;;;;;;;;15.00;99.90;;;14.47;100.00;97102.69;5041441;28;1555;-71
2023/10/14 06:18:05;;;;;;;;;;;15.00;99.90;;;14.55;100.00;97103.88;5042424;28;1327;-71
2023/10/14 06:20:32;;;;;;;;;;;15.10;99.90;;;14.55;100.00;97122.16;5043680;28;1605;-71
2023/10/14 06:22:59;;;;;;;;;;;15.00;99.90;;;14.65;100.00;97111.94;5045023;28;1895;-71
2023/10/14 06:25:29;;;;;;;;;;;15.10;99.90;;;14.69;100.00;97123.88;5045634;28;1364;-71
2023/10/14 06:27:57;;;;;;;;;;;15.10;99.90;;;14.77;100.00;97123.34;5025139;28;1573;-71
2023/10/14 06:30:28;;;;;;;;;;;15.10;99.90;;;14.79;100.00;97131.91;5029862;28;1673;-71
2023/10/14 06:33:03;;;;;;;;;;;15.10;99.90;;;14.76;100.00;97138.19;5043236;28;1665;-71
2023/10/14 06:35:32;;;;;;;;;;;15.20;99.90;;;14.76;100.00;97145.19;5027294;28;1648;-71
2023/10/14 06:37:59;;;;;;;;;;;15.20;99.90;;;14.79;100.00;97148.44;5042012;28;1554;-71
2023/10/14 06:40:35;;;;;;;;;;;15.10;99.90;;;14.76;100.00;97155.66;5026899;28;1522;-71
2023/10/14 06:43:07;;;;;;;;;;;15.20;99.90;;;14.72;100.00;97165.44;5028992;28;2001;-71
2023/10/14 06:45:35;;;;;;;;;;;15.20;99.90;;;14.80;100.00;97170.16;5041352;28;1644;-71
2023/10/14 06:48:03;;;;;;;;;;;15.20;99.90;;;14.84;100.00;97169.84;5035553;28;1530;-71
2023/10/14 06:50:31;;;;;;;;;;;15.20;99.90;;;14.92;100.00;97168.53;5023166;28;1395;-71
2023/10/14 06:52:58;;;;;;;;;;;15.20;99.90;;;14.82;100.00;97181.34;5041919;28;1636;-71
2023/10/14 06:55:27;;;;;;;;;;;15.20;99.90;;;14.93;100.00;97168.41;5033005;28;1510;-71
2023/10/14 06:57:55;;;;;;;;;;;15.30;99.90;;;14.91;100.00;97180.72;5043014;28;1606;-71
2023/10/14 07:00:31;;;;;;;;;;;15.40;99.90;;;15.19;100.00;97179.75;5026186;28;1566;-70
2023/10/14 07:03:01;;;;;;;;;;;15.50;99.90;;;15.18;100.00;97183.28;5042950;28;1984;-71
2023/10/14 07:05:29;;;;;;;;;;;15.50;99.90;;;15.11;100.00;97184.63;5041340;28;1573;-71
2023/10/14 07:07:57;;;;;;;;;;;15.50;99.90;;;15.11;100.00;97196.88;5039699;28;1641;-71
2023/10/14 07:10:27;;;;;;;;;;;15.60;99.90;;;15.18;100.00;97201.59;5040988;28;1416;-71
2023/10/14 07:12:57;;;;;;;;;;;15.50;99.90;;;15.05;100.00;97196.34;5012767;28;1797;-71
2023/10/14 07:15:25;;;;;;;;;;;15.60;99.90;;;15.14;100.00;97207.94;5041962;28;1479;-71
2023/10/14 07:17:54;;;;;;;;;;;15.60;99.90;;;14.99;100.00;97219.44;5045780;28;1656;-71
2023/10/14 07:20:22;;;;;;;;;;;15.60;99.90;;;14.93;100.00;97231.13;5042450;28;1510;-71
2023/10/14 07:22:49;;;;;;;;;;;15.60;99.90;;;15.12;100.00;97228.16;5026217;28;1356;-71
2023/10/14 07:25:18;;;;;;;;;;;15.60;99.90;;;15.18;100.00;97227.72;5040836;28;1978;-71
2023/10/14 07:27:51;;;;;;;;;;;15.60;99.90;;;15.33;100.00;97236.34;5023053;28;1267;-71
2023/10/14 07:30:19;;;;;;;;;;;15.50;99.90;;;15.32;100.00;97231.19;5028943;28;1549;-71
2023/10/14 07:32:47;;;;;;;;;;;15.60;99.90;;;15.52;100.00;97232.47;5034432;28;1332;-71
2023/10/14 07:35:16;;;;;;;;;;;15.80;99.90;;;15.34;100.00;97238.00;5032035;28;1610;-71
2023/10/14 07:37:45;;;;;;;;;;;15.90;99.90;;;15.57;100.00;97246.91;5026244;28;1605;-71
2023/10/14 07:40:22;;;;;;;;;;;15.70;99.90;;;15.53;100.00;97255.91;5043014;28;1616;-71
2023/10/14 07:42:53;;;;;;;;;;;15.90;99.90;;;15.36;100.00;97262.28;5040776;28;1510;-71
2023/10/14 07:45:21;;;;;;;;;;;15.90;99.90;;;15.64;100.00;97253.38;5037701;28;1903;-71
2023/10/14 07:47:49;;;;;;;;;;;16.10;99.90;;;15.70;100.00;97257.38;5026251;28;1550;-70
2023/10/14 07:50:16;;;;;;;;;;;16.10;99.90;;;15.65;100.00;97265.53;5024995;28;1535;-71
2023/10/14 07:52:44;;;;;;;;;;;16.10;99.90;;;15.64;100.00;97260.41;5041464;28;1769;-71
2023/10/14 07:55:15;;;;;;;;;;;16.10;99.90;;;15.69;100.00;97260.91;5038838;28;1631;-71
2023/10/14 07:57:42;;;;;;;;;;;16.10;99.90;;;16.21;100.00;97262.56;5024363;28;1547;-71
2023/10/14 08:00:12;;;;;;;;;;;16.50;99.90;;;16.17;100.00;97250.66;5039170;28;1533;-71
2023/10/14 08:02:40;;;;;;;;;;;16.60;99.90;;;16.12;100.00;97252.75;5039752;28;1612;-71
2023/10/14 08:05:08;;;;;;;;;;;16.60;99.90;;;15.69;100.00;97261.78;5023681;28;1993;-71
2023/10/14 08:07:42;;;;;;;;;;;16.30;99.90;;;15.78;100.00;97270.81;5039179;28;1472;-72
2023/10/14 08:10:18;;;;;;;;;;;16.20;99.90;;;15.54;100.00;97268.03;5024200;28;1405;-71
2023/10/14 08:12:47;;;;;;;;;;;16.30;99.90;;;15.22;100.00;97250.13;5039821;28;1565;-71
2023/10/14 08:15:17;;;;;;;;;;;16.20;99.90;;;15.18;100.00;97260.88;5023068;28;1397;-71
2023/10/14 08:17:45;;;;;;;;;;;16.00;99.90;;;15.17;100.00;97270.50;5042601;28;1369;-72
2023/10/14 08:20:12;;;;;;;;;;;15.90;99.90;;;15.17;100.00;97278.34;5025617;28;1384;-73
2023/10/14 08:22:46;;;;;;;;;;;15.80;99.90;;;15.16;100.00;97284.50;5038876;28;1437;-73
2023/10/14 08:25:15;;;;;;;;;;;15.90;99.90;;;14.76;100.00;97283.66;5028846;28;1906;-73
2023/10/14 08:27:43;;;;;;;;;;;15.60;99.90;;;15.32;100.00;97293.97;5020309;28;1438;-73
2023/10/14 08:30:11;;;;;;;;;;;15.80;99.90;;;15.49;100.00;97291.06;5041616;28;1711;-70
2023/10/14 08:32:44;;;;;;;;;;;16.00;99.90;;;16.11;100.00;97282.50;5024482;28;1524;-72
2023/10/14 08:35:15;;;;;;;;;;;16.50;99.90;;;16.36;100.00;97268.53;5041674;28;2098;-73
2023/10/14 08:37:47;;;;;;;;;;;17.20;99.90;;;16.75;100.00;97276.25;5022256;28;1475;-73
2023/10/14 08:40:19;;;;;;;;;;;17.50;99.90;;;16.38;100.00;97271.88;5043792;28;1506;-73
2023/10/14 08:42:51;;;;;;;;;;;17.40;99.90;;;16.22;100.00;97279.16;5028913;28;1655;-72
2023/10/14 08:45:20;;;;;;;;;;;17.10;99.90;;;16.14;100.00;97284.06;5042064;28;1902;-72
2023/10/14 08:47:52;;;;;;;;;;;17.10;99.90;;;16.45;100.00;97274.91;5025510;28;1960;-73
2023/10/14 08:50:24;;;;;;;;;;;17.00;99.90;;;16.59;100.00;97279.16;5033935;28;1496;-73
2023/10/14 08:52:53;;;;;;;;;;;17.00;99.90;;;15.68;100.00;97285.41;5037209;28;1446;-73
2023/10/14 08:55:21;;;;;;;;;;;16.80;99.90;;;15.99;100.00;97284.19;5037120;28;1376;-73
2023/10/14 08:57:50;;;;;;;;;;;16.80;99.90;;;15.89;100.00;97297.06;5023025;28;946;-73
2023/10/14 09:00:20;;;;;;;;;;;16.70;99.90;;;15.54;100.00;97293.38;5040697;28;1406;-73
2023/10/14 09:02:53;;;;;;;;;;;16.30;99.90;;;15.78;100.00;97293.50;5021903;28;1399;-73
2023/10/14 09:05:22;;;;;;;;;;;16.30;99.90;;;15.47;100.00;97299.00;5037066;28;2017;-73
2023/10/14 09:07:50;;;;;;;;;;;16.10;99.90;;;15.26;100.00;97300.44;5027440;28;1420;-73
2023/10/14 09:10:21;;;;;;;;;;;15.80;99.90;;;15.15;100.00;97295.09;5040711;28;1317;-73
2023/10/14 09:12:57;;;;;;;;;;;15.60;99.90;;;15.22;100.00;97297.19;5026327;28;1446;-72
2023/10/14 09:15:28;;;;;;;;;;;15.40;99.90;;;14.98;100.00;97317.06;5040881;28;1387;-73
2023/10/14 09:17:55;;;;;;;;;;;15.50;99.90;;;15.21;100.00;97311.22;5040922;28;1396;-73
2023/10/14 09:20:32;;;;;;;;;;;15.40;99.90;;;14.88;100.00;97303.75;5038203;28;1529;-74
2023/10/14 09:23:39;;;;;;;;;;;15.40;99.90;;;14.87;100.00;97314.31;5023033;28;1501;-72
2023/10/14 09:26:06;;;;;;;;;;;15.40;99.90;;;14.84;100.00;97325.78;5040413;28;1679;-73
2023/10/14 09:28:35;;;;;;;;;;;15.20;99.90;;;14.91;100.00;97329.69;5011583;28;1056;-71
2023/10/14 09:31:08;;;;;;;;;;;15.10;99.90;;;14.73;100.00;97334.31;5041338;28;1404;-72
2023/10/14 09:33:38;;;;;;;;;;;15.00;99.90;;;14.48;100.00;97337.59;5021701;28;1452;-73
2023/10/14 09:36:11;;;;;;;;;;;14.90;99.90;;;14.35;100.00;97336.69;5025071;28;1415;-72
2023/10/14 09:38:39;;;;;;;;;;;14.80;99.90;;;14.50;100.00;97340.13;5020262;28;1240;-73
2023/10/14 09:41:10;;;;;;;;;;;14.80;99.90;;;14.50;100.00;97337.50;5036198;28;1379;-73
2023/10/14 09:43:39;;;;;;;;;;;14.80;99.90;;;14.34;100.00;97328.00;5023455;28;1926;-73
2023/10/14 09:46:17;;;;;;;;;;;15.00;99.90;;;14.53;100.00;97330.31;5027758;28;1364;-73
2023/10/14 09:48:44;;;;;;;;;;;14.90;99.90;;;14.69;100.00;97332.00;5038011;28;1418;-73
2023/10/14 09:51:14;;;;;;;;;;;15.10;99.90;;;14.48;100.00;97329.75;5034383;28;1391;-73
2023/10/14 09:53:44;;;;;;;;;;;15.20;99.90;;;14.39;100.00;97339.03;5024076;28;1380;-73
2023/10/14 09:56:12;;;;;;;;;;;15.00;99.90;;;14.26;100.00;97335.47;5024356;28;1569;-73
2023/10/14 09:58:42;;;;;;;;;;;15.00;99.90;;;14.63;100.00;97328.84;5039026;28;1373;-73
2023/10/14 10:01:12;;;;;;;;;;;15.10;99.90;;;14.35;100.00;97339.31;5038239;28;1346;-73
2023/10/14 10:03:48;;;;;;;;;;;15.20;99.90;;;14.59;100.00;97332.56;5020819;28;1988;-73
2023/10/14 10:06:15;;;;;;;;;;;15.20;99.90;;;14.67;100.00;97331.28;5007840;28;1053;-73
2023/10/14 10:09:06;;;;;;;;;;;15.30;99.90;;;14.58;100.00;97338.75;5035827;28;1203;-73
2023/10/14 10:11:35;;;;;;;;;;;15.40;99.90;;;14.77;100.00;97342.81;5040224;28;1402;-73
2023/10/14 10:14:12;;;;;;;;;;;15.40;99.90;;;14.68;100.00;97346.00;5017705;28;1342;-72
2023/10/14 10:16:42;;;;;;;;;;;15.30;99.90;;;14.92;100.00;97346.22;5030771;28;1561;-73
2023/10/14 10:19:10;;;;;;;;;;;15.50;99.90;;;14.53;100.00;97342.53;5020146;28;1031;-73
2023/10/14 10:21:43;;;;;;;;;;;15.60;99.90;;;14.68;100.00;97352.06;5036329;28;1390;-73
2023/10/14 10:24:30;;;;;;;;;;;15.50;99.90;;;14.88;100.00;97361.25;5034126;28;1990;-73
2023/10/14 10:27:03;;;;;;;;;;;15.50;99.90;;;14.82;100.00;97364.25;5019911;28;1368;-73
2023/10/14 10:29:33;;;;;;;;;;;15.40;99.90;;;14.35;100.00;97392.34;5038638;28;1393;-73
2023/10/14 10:32:18;;;;;;;;;;;15.00;99.90;;;14.08;100.00;97389.63;5042061;28;1511;-73
2023/10/14 10:35:06;;;;;;;;;;;15.00;99.90;;;13.76;100.00;97388.94;5026653;28;1440;-73
2023/10/14 10:37:40;;;;;;;;;;;14.90;99.90;;;13.69;100.00;97395.44;5040858;28;1086;-73
2023/10/14 10:40:11;;;;;;;;;;;14.70;99.90;;;13.80;100.00;97386.06;5036098;28;1384;-73
2023/10/14 10:42:44;;;;;;;;;;;14.70;99.90;;;13.97;100.00;97392.03;5026056;28;1472;-73
2023/10/14 10:45:23;;;;;;;;;;;14.80;99.90;;;14.05;100.00;97383.75;5023531;28;2029;-72
2023/10/14 10:47:54;;;;;;;;;;;14.80;99.90;;;14.20;100.00;97386.28;5025371;28;2057;-73
2023/10/14 10:50:36;;;;;;;;;;;14.80;99.90;;;13.80;100.00;97375.63;5031744;28;1057;-73
2023/10/14 10:53:10;;;;;;;;;;;14.70;99.90;;;13.84;100.00;97381.47;5029835;28;1378;-73
2023/10/14 10:55:51;;;;;;;;;;;14.60;99.90;;;14.14;100.00;97375.38;5025126;28;1412;-73
2023/10/14 10:58:20;;;;;;;;;;;14.60;99.90;;;14.11;100.00;97370.34;5029965;28;1344;-73
2023/10/14 11:00:50;;;;;;;;;;;14.80;99.90;;;14.20;100.00;97388.06;5042242;28;1447;-73
2023/10/14 11:03:17;;;;;;;;;;;14.90;99.90;;;14.33;100.00;97389.00;5039846;28;1056;-73
2023/10/14 11:05:46;;;;;;;;;;;14.90;99.90;;;14.07;100.00;97397.53;5034772;28;1985;-73
2023/10/14 11:08:16;;;;;;;;;;;14.90;99.90;;;14.14;100.00;97391.88;5038313;28;1380;-73
2023/10/14 11:10:44;;;;;;;;;;;14.90;99.90;;;14.22;100.00;97383.59;5038998;28;1722;-74
2023/10/14 11:13:13;;;;;;;;;;;15.00;99.90;;;14.37;100.00;97372.22;5024919;28;1625;-73
2023/10/14 11:15:43;;;;;;;;;;;15.00;99.90;;;14.85;100.00;97367.53;5043222;28;1568;-73
2023/10/14 11:18:10;;;;;;;;;;;15.20;99.90;;;14.83;100.00;97373.78;5029347;28;1887;-72
2023/10/14 11:20:49;;;;;;;;;;;15.40;99.90;;;14.77;100.00;97380.22;5039597;28;1504;-73
2023/10/14 11:23:17;;;;;;;;;;;15.50;99.90;;;14.51;100.00;97387.03;5024297;28;1723;-72
2023/10/14 11:25:46;;;;;;;;;;;15.50;99.90;;;14.83;100.00;97392.91;5026844;28;1918;-73
2023/10/14 11:28:14;;;;;;;;;;;15.60;99.90;;;14.52;100.00;97398.31;5023315;28;1483;-74
2023/10/14 11:30:46;;;;;;;;;;;15.40;99.90;;;14.39;100.00;97395.59;5041407;28;1657;-74
2023/10/14 11:33:16;;;;;;;;;;;15.10;99.90;;;14.56;100.00;97399.84;5024338;28;1651;-73
2023/10/14 11:35:43;;;;;;;;;;;15.10;99.90;;;14.35;100.00;97394.13;5044061;28;1445;-73
2023/10/14 11:38:14;;;;;;;;;;;15.00;99.90;;;14.27;100.00;97391.13;5022479;28;1396;-73
2023/10/14 11:40:48;;;;;;;;;;;15.00;99.90;;;14.44;100.00;97385.75;5035450;28;1549;-73
2023/10/14 11:43:16;;;;;;;;;;;15.10;99.90;;;14.87;100.00;97390.09;5042098;28;1371;-73
2023/10/14 11:45:43;;;;;;;;;;;15.30;99.90;;;15.13;100.00;97393.69;5037756;28;1902;-73
2023/10/14 11:48:25;;;;;;;;;;;15.50;99.90;;;15.16;100.00;97381.22;5027453;28;1386;-73
2023/10/14 11:51:02;;;;;;;;;;;15.60;99.90;;;14.51;100.00;97389.66;5027691;28;1482;-73
2023/10/14 11:53:33;;;;;;;;;;;15.40;99.90;;;14.49;100.00;97385.47;5026600;28;1416;-72
2023/10/14 11:56:03;;;;;;;;;;;15.00;99.90;;;14.51;100.00;97381.81;5042888;28;1240;-73
2023/10/14 11:58:32;;;;;;;;;;;15.00;99.90;;;14.67;100.00;97394.81;5024533;28;1632;-73
2023/10/14 12:01:00;;;;;;;;;;;15.10;99.90;;;14.73;100.00;97401.41;5038544;28;1394;-73
2023/10/14 12:03:27;;;;;;;;;;;15.20;99.90;;;14.69;100.00;97400.78;5041794;28;1405;-73
2023/10/14 12:05:57;;;;;;;;;;;15.30;99.90;;;14.71;100.00;97409.34;5039629;28;1975;-73
2023/10/14 12:08:29;;;;;;;;;;;15.40;99.90;;;14.61;100.00;97403.84;5043540;28;1437;-73
2023/10/14 12:10:57;;;;;;;;;;;15.30;99.90;;;14.68;100.00;97403.47;5044803;28;1489;-73
2023/10/14 12:13:27;;;;;;;;;;;15.40;99.90;;;14.54;100.00;97396.47;5039880;28;1549;-72
2023/10/14 12:16:15;;;;;;;;;;;15.30;99.90;;;14.49;100.00;97396.75;5043313;28;1703;-73